Flight Track Log - Related Links

Times and Time Zones

All times are in EDT time to prevent confusion due to time zone crossing. See the UAL582 flight status page for this flight to view local times or setup timezone preferences in your user account.

Time Position Orientation Groundspeed Altitude Reporting Facility
EDT Latitude Longitude Course Direction KTS MPH feet Rate Location/Type
Tue 06:26:33 PM 43.6833 -79.5667 47° Northeast 170 196 1,900  Level Toronto Center
Tue 06:27:33 PM 43.7167 -79.5167 47° Northeast 190 219 3,400 1,950 Climbing Toronto Center
Tue 06:28:33 PM 43.7833 -79.5167 360° North 260 299 5,800 2,733 Climbing Toronto Center
Tue 06:30:33 PM 43.8000 -79.7000 277° West 280 322 11,600 2,633 Climbing Toronto Center
Tue 06:31:33 PM 43.7833 -79.8333 260° West 330 380 13,700 2,400 Climbing Toronto Center
Tue 06:32:33 PM 43.7833 -79.9833 270° West 360 414 16,400 2,700 Climbing Toronto Center
Tue 06:33:33 PM 43.7667 -80.1000 259° West 360 414 19,100 2,650 Climbing Toronto Center
Tue 06:34:33 PM 43.7667 -80.2500 270° West 370 426 21,700 2,100 Climbing Toronto Center
Tue 06:35:33 PM 43.7333 -80.3667 248° West 350 403 23,300 1,650 Climbing Toronto Center
Tue 06:36:33 PM 43.6833 -80.5167 245° Southwest 360 414 25,000 1,800 Climbing Toronto Center
Tue 06:37:33 PM 43.6333 -80.6167 235° Southwest 360 414 26,900 1,900 Climbing Toronto Center
Tue 06:38:33 PM 43.6167 -80.7667 261° West 370 426 28,800 2,100 Climbing Toronto Center
Tue 06:39:33 PM 43.5667 -80.8833 239° Southwest 360 414 31,100 2,100 Climbing Toronto Center
Tue 06:40:33 PM 43.4667 -80.9500 206° Southwest 380 437 33,000 1,950 Climbing Toronto Center
Tue 06:41:33 PM 43.3667 -80.9833 194° South 370 426 35,000 1,500 Climbing Toronto Center
Tue 06:42:33 PM 43.2667 -81.0333 200° South 370 426 36,000 500 Climbing Toronto Center
Tue 06:43:33 PM 43.1667 -81.1000 206° Southwest 380 437 36,000  Level Toronto Center
Tue 06:44:33 PM 43.0833 -81.1333 196° South 380 437 36,000  Level Toronto Center
Tue 06:45:33 PM 43.0333 -81.2500 240° Southwest 340 391 36,000  Level Toronto Center
Tue 06:46:33 PM 43.0333 -81.3833 270° West 330 380 36,000  Level Toronto Center
Tue 06:47:33 PM 43.0333 -81.5000 270° West 340 391 36,000  Level Toronto Center
Tue 06:48:33 PM 43.0333 -81.6333 270° West 350 403 36,000  Level Toronto Center
Tue 06:49:33 PM 43.0333 -81.7833 270° West 350 403 36,000  Level Toronto Center
Tue 06:50:33 PM 43.0167 -81.9167 260° West 350 403 36,000  Level Toronto Center
Tue 06:51:33 PM 43.0167 -82.0500 270° West 350 403 36,000  Level Toronto Center
Tue 06:52:33 PM 43.0167 -82.1833 270° West 350 403 36,000  Level Toronto Center
Tue 06:53:33 PM 43.0167 -82.3000 270° West 350 403 36,000  Level Toronto Center
Tue 06:54:33 PM 43.0167 -82.4667 270° West 350 403 36,000  Level Toronto Center
Tue 06:55:33 PM 43.0000 -82.5667 257° West 340 391 36,000  Level Toronto Center
Tue 06:56:33 PM 42.9833 -82.7167 261° West 340 391 36,000  Level Toronto Center
Tue 06:56:50 PM 43.0069 -82.7436 320° Northwest 346 398 36,000  Level Cleveland Center
Tue 06:57:50 PM 43.0022 -82.8714 267° West 346 398 36,000  Level Cleveland Center
Tue 06:58:50 PM 42.9956 -82.9989 266° West 346 398 36,000  Level Cleveland Center
Tue 06:59:50 PM 42.9928 -83.1264 268° West 346 398 36,000  Level Cleveland Center
Tue 07:00:50 PM 42.9858 -83.2511 266° West 346 398 36,000  Level Cleveland Center
Tue 07:01:50 PM 42.9806 -83.3786 267° West 346 398 36,000  Level Cleveland Center
Tue 07:02:50 PM 42.9775 -83.5061 268° West 346 398 36,000 -250 Level Cleveland Center
Tue 07:03:50 PM 43.0014 -83.6294 285° West 346 398 35,500 -750 Descending Cleveland Center
Tue 07:04:50 PM 43.0272 -83.7528 286° West 341 392 34,500 -1,000 Descending Cleveland Center
Tue 07:05:50 PM 43.0467 -83.8844 281° West 346 398 33,500 -1,000 Descending Cleveland Center
Tue 07:06:50 PM 43.0178 -84.0108 253° West 341 392 32,500 -750 Descending Cleveland Center
Tue 07:07:50 PM 42.9847 -84.1394 251° West 351 404 32,000 -184 Descending Cleveland Center
Tue 07:09:33 PM 42.9167 -84.3667 248° West 360 414 32,000  Level Toronto Center
Tue 07:10:17 PM 42.9153 -84.4481 269° West 356 410 32,000  Level Chicago Center
Tue 07:11:19 PM 42.8853 -84.5775 252° West 358 412 32,000  Level Chicago Center
Tue 07:12:22 PM 42.8678 -84.7389 262° West 361 415 32,000  Level Chicago Center
Tue 07:13:24 PM 42.8539 -84.8731 262° West 358 412 32,000  Level Chicago Center
Tue 07:14:26 PM 42.8403 -85.0072 262° West 358 412 32,000  Level Chicago Center
Tue 07:15:28 PM 42.8253 -85.1408 261° West 358 412 32,000  Level Chicago Center
Tue 07:16:30 PM 42.8106 -85.2747 262° West 357 411 32,000  Level Chicago Center
Tue 07:17:32 PM 42.7958 -85.4125 262° West 359 413 32,000 -290 Level Chicago Center
Tue 07:18:34 PM 42.7744 -85.5700 260° West 359 413 31,400 -823 Descending Chicago Center
Tue 07:19:36 PM 42.7489 -85.7061 256° West 366 421 30,300 -1,694 Descending Chicago Center
Tue 07:20:38 PM 42.7247 -85.8408 256° West 366 421 27,900 -2,323 Descending Chicago Center
Tue 07:21:40 PM 42.7000 -85.9733 256° West 362 417 25,500 -2,323 Descending Chicago Center
Tue 07:22:42 PM 42.6767 -86.1019 256° West 353 406 23,100 -2,419 Descending Chicago Center
Tue 07:23:44 PM 42.6542 -86.2247 256° West 338 389 20,500 -1,500 Descending Chicago Center
Tue 07:24:46 PM 42.6325 -86.3414 256° West 323 372 20,000 -823 Descending Chicago Center
Tue 07:25:48 PM 42.6103 -86.4569 255° West 318 366 18,800 -1,597 Descending Chicago Center
Tue 07:26:50 PM 42.5842 -86.5978 256° West 321 369 16,700 -1,887 Descending Chicago Center
Tue 07:27:52 PM 42.5628 -86.7125 256° West 316 364 14,900 -1,742 Descending Chicago Center
Tue 07:28:54 PM 42.5353 -86.8189 251° West 301 346 13,100 -1,756 Descending Chicago Center
Tue 07:29:55 PM 42.5072 -86.9203 249° West 296 341 11,300 -1,512 Descending Chicago Center
Tue 07:30:57 PM 42.4792 -87.0225 250° West 292 336 10,000 -629 Descending Chicago Center
Tue 07:31:59 PM 42.4511 -87.1228 249° West 288 331 10,000 -677 Level Chicago Center
Tue 07:33:01 PM 42.4219 -87.2264 249° West 252 290 8,600 -1,161 Descending Chicago Center
Tue 07:34:03 PM 42.3989 -87.3142 250° West 248 285 7,600 -968 Descending Chicago Center
Tue 07:35:05 PM 42.3764 -87.3967 250° West 249 287 6,600 -774 Descending Chicago Center
Tue 07:36:07 PM 42.3464 -87.5022 249° West 255 293 6,000 -290 Descending Chicago Center
Tue 07:37:09 PM 42.3058 -87.5544 224° Southwest 257 296 6,000  Level Chicago Center
Tue 07:38:11 PM 42.2236 -87.5436 174° South 247 284 6,000 -484 Level Chicago Center
Tue 07:39:13 PM 42.1642 -87.5381 176° South 219 252 5,000 -1,009 Descending Chicago Center
Tue 07:40:04 PM 42.1167 -87.4833 139° Southeast 215 247 4,100 -541 Descending Chicago TRACON
Tue 07:41:04 PM 42.0667 -87.4667 166° South 195 224 4,000 -50 Descending Chicago TRACON
Tue 07:42:04 PM 42.0167 -87.4667 180° South 194 223 4,000  Level Chicago TRACON
Tue 07:44:04 PM 41.9833 -87.5500 242° Southwest 161 185 4,000 -25 Level Chicago TRACON
Tue 07:46:05 PM 41.9833 -87.6667 270° West 160 184 3,900 -331 Descending Chicago TRACON
Tue 07:47:05 PM 41.9833 -87.7333 270° West 165 190 3,000 -900 Descending Chicago TRACON

Login

Don't have an account? Register now (free) for customized features, flight alerts, and more!